createdAt,value
2018-07-20T00:01:04.195Z,7.37
2018-07-20T00:03:32.363Z,7.13
2018-07-20T00:06:00.565Z,6.73
2018-07-20T00:08:28.723Z,6.40
2018-07-20T00:10:57.031Z,7.30
2018-07-20T00:13:25.196Z,6.67
2018-07-20T00:15:53.751Z,6.90
2018-07-20T00:18:22.019Z,7.70
2018-07-20T00:20:50.403Z,7.07
2018-07-20T00:23:18.661Z,7.63
2018-07-20T00:25:46.867Z,8.10
2018-07-20T00:28:15.048Z,7.60
2018-07-20T00:30:43.357Z,7.47
2018-07-20T00:33:11.899Z,7.70
2018-07-20T00:35:40.104Z,7.30
2018-07-20T00:38:08.741Z,7.27
2018-07-20T00:40:36.955Z,6.70
2018-07-20T00:43:05.092Z,7.70
2018-07-20T00:45:33.288Z,6.90
2018-07-20T00:48:01.428Z,7.17
2018-07-20T00:50:29.760Z,7.43
2018-07-20T00:52:57.929Z,7.13
2018-07-20T00:55:26.471Z,7.70
2018-07-20T00:57:54.708Z,7.07
2018-07-20T01:00:23.077Z,7.20
2018-07-20T01:02:51.544Z,7.10
2018-07-20T01:05:19.728Z,6.90
2018-07-20T01:07:48.088Z,7.70
2018-07-20T01:10:16.500Z,7.60
2018-07-20T01:12:44.642Z,6.97
2018-07-20T01:15:12.841Z,8.13
2018-07-20T01:17:41.001Z,7.60
2018-07-20T01:20:09.195Z,7.70
2018-07-20T01:22:37.467Z,7.43
2018-07-20T01:25:05.975Z,9.07
2018-07-20T01:27:34.344Z,7.07
2018-07-20T01:30:02.637Z,7.60
2018-07-20T01:32:31.011Z,6.77
2018-07-20T01:34:59.540Z,7.47
2018-07-20T01:37:27.668Z,8.07
2018-07-20T01:39:55.863Z,7.30
2018-07-20T01:42:24.025Z,7.03
2018-07-20T01:44:52.172Z,9.13
2018-07-20T01:47:20.337Z,10.50
2018-07-20T01:49:48.545Z,7.93
2018-07-20T01:52:16.900Z,7.97
2018-07-20T01:54:45.462Z,7.47
2018-07-20T01:57:13.674Z,8.03
2018-07-20T01:59:41.879Z,9.40
2018-07-20T02:02:10.126Z,7.97
2018-07-20T02:04:38.382Z,8.80
2018-07-20T02:07:06.959Z,8.30
2018-07-20T02:09:35.342Z,8.60
2018-07-20T02:12:03.533Z,8.00
2018-07-20T02:14:31.799Z,8.33
2018-07-20T02:16:59.995Z,8.27
2018-07-20T02:19:28.160Z,7.40
2018-07-20T02:21:56.439Z,9.30
2018-07-20T02:24:24.795Z,11.03
2018-07-20T02:26:53.017Z,7.80
2018-07-20T02:29:21.289Z,8.77
2018-07-20T02:31:49.684Z,8.37
2018-07-20T02:34:18.356Z,8.77
2018-07-20T02:36:46.603Z,9.03
2018-07-20T02:39:14.822Z,7.93
2018-07-20T02:41:43.225Z,8.03
2018-07-20T02:44:12.072Z,7.30
2018-07-20T02:46:40.430Z,7.57
2018-07-20T02:49:09.547Z,8.50
2018-07-20T02:51:37.759Z,8.60
2018-07-20T02:54:05.986Z,8.67
2018-07-20T02:56:34.158Z,8.67
2018-07-20T02:59:02.665Z,9.17
2018-07-20T03:01:31.115Z,8.73
2018-07-20T03:03:59.519Z,9.20
2018-07-20T03:06:28.108Z,8.20
2018-07-20T03:08:56.408Z,7.90
2018-07-20T03:11:24.729Z,9.00
2018-07-20T03:13:52.932Z,8.73
2018-07-20T03:16:21.176Z,8.50
2018-07-20T03:18:49.699Z,8.47
2018-07-20T03:21:17.875Z,9.47
2018-07-20T03:23:46.020Z,8.90
2018-07-20T03:26:14.230Z,8.77
2018-07-20T03:28:44.387Z,10.13
2018-07-20T03:31:12.616Z,9.50
2018-07-20T03:33:41.105Z,9.13
2018-07-20T03:36:09.289Z,8.77
2018-07-20T03:38:37.655Z,8.00
2018-07-20T03:41:06.020Z,8.50
2018-07-20T03:43:34.185Z,8.37
2018-07-20T03:46:02.374Z,8.50
2018-07-20T03:48:30.568Z,8.93
2018-07-20T03:50:58.935Z,8.57
2018-07-20T03:53:27.216Z,7.80
2018-07-20T03:55:55.490Z,8.50
2018-07-20T03:58:23.664Z,8.07
2018-07-20T04:00:51.811Z,8.90
2018-07-20T04:03:20.044Z,9.53
2018-07-20T04:05:48.292Z,8.83
2018-07-20T04:08:16.514Z,8.70
2018-07-20T04:10:44.844Z,8.70
2018-07-20T04:13:13.127Z,8.30
2018-07-20T04:15:41.810Z,9.20
2018-07-20T04:18:10.088Z,8.43
2018-07-20T04:20:38.244Z,8.53
2018-07-20T04:23:06.432Z,8.73
2018-07-20T04:25:34.963Z,9.17
2018-07-20T04:28:03.459Z,8.27
2018-07-20T04:30:31.706Z,7.70
2018-07-20T04:32:59.956Z,8.63
2018-07-20T04:35:28.135Z,7.60
2018-07-20T04:37:56.672Z,7.87
2018-07-20T04:40:24.827Z,7.70
2018-07-20T04:42:53.179Z,8.37
2018-07-20T04:45:21.375Z,8.87
2018-07-20T04:47:49.763Z,6.93
2018-07-20T04:50:18.060Z,7.53
2018-07-20T04:52:46.425Z,7.93
2018-07-20T04:55:14.571Z,7.73
2018-07-20T04:57:42.861Z,8.03
2018-07-20T05:00:11.105Z,8.07
2018-07-20T05:02:39.615Z,8.47
2018-07-20T05:05:08.111Z,8.80
2018-07-20T05:07:36.327Z,7.40
2018-07-20T05:10:04.651Z,8.53
2018-07-20T05:12:32.860Z,8.07
2018-07-20T05:15:01.050Z,8.30
2018-07-20T05:17:29.384Z,7.87
2018-07-20T05:19:57.552Z,8.43
2018-07-20T05:22:25.723Z,7.20
2018-07-20T05:24:53.966Z,7.93
2018-07-20T05:27:22.107Z,8.40
2018-07-20T05:29:50.256Z,8.63
2018-07-20T05:32:18.800Z,8.73
2018-07-20T05:34:47.034Z,8.47
2018-07-20T05:37:15.299Z,8.27
2018-07-20T05:39:43.584Z,8.13
2018-07-20T05:42:12.049Z,8.73
2018-07-20T05:44:40.355Z,9.03
2018-07-20T05:47:08.523Z,8.90
2018-07-20T05:49:36.767Z,10.90
2018-07-20T05:52:04.948Z,9.50
2018-07-20T05:54:33.147Z,10.80
2018-07-20T05:57:01.397Z,10.03
2018-07-20T05:59:29.591Z,13.90
2018-07-20T06:01:57.964Z,11.60
2018-07-20T06:04:26.352Z,10.60
2018-07-20T06:06:54.573Z,11.33
2018-07-20T06:09:23.005Z,11.23
2018-07-20T06:11:51.283Z,10.43
2018-07-20T06:14:19.572Z,10.10
2018-07-20T06:16:47.727Z,12.33
2018-07-20T06:19:15.998Z,17.47
2018-07-20T06:21:44.171Z,10.83
2018-07-20T06:24:12.553Z,9.90
2018-07-20T06:26:40.788Z,10.20
2018-07-20T06:29:09.223Z,13.33
2018-07-20T06:31:37.716Z,9.47
2018-07-20T06:34:05.938Z,10.03
2018-07-20T06:36:34.576Z,10.10
2018-07-20T06:39:03.044Z,13.70
2018-07-20T06:41:31.227Z,9.83
2018-07-20T06:43:59.408Z,9.87
2018-07-20T06:46:27.617Z,9.77
2018-07-20T06:48:55.963Z,11.30
2018-07-20T06:51:24.331Z,8.63
2018-07-20T06:53:52.533Z,15.27
2018-07-20T06:56:21.521Z,9.77
2018-07-20T06:58:50.009Z,8.20
2018-07-20T07:01:18.763Z,9.07
2018-07-20T07:03:46.968Z,10.60
2018-07-20T07:06:15.156Z,10.50
2018-07-20T07:08:43.700Z,13.03
2018-07-20T07:11:11.811Z,9.70
2018-07-20T07:13:40.072Z,14.30
2018-07-20T07:16:08.252Z,11.70
2018-07-20T07:18:36.772Z,11.60
2018-07-20T07:21:04.957Z,11.10
2018-07-20T07:23:33.701Z,11.13
2018-07-20T07:26:02.144Z,11.30
2018-07-20T07:28:30.552Z,11.83
2018-07-20T07:30:58.740Z,10.37
2018-07-20T07:33:27.407Z,11.33
2018-07-20T07:35:55.610Z,9.77
2018-07-20T07:38:24.672Z,9.93
2018-07-20T07:40:52.861Z,9.80
2018-07-20T07:43:21.231Z,15.57
2018-07-20T07:45:49.539Z,8.67
2018-07-20T07:48:17.675Z,8.57
2018-07-20T07:50:45.913Z,11.43
2018-07-20T07:53:14.035Z,7.70
2018-07-20T07:55:42.195Z,7.30
2018-07-20T07:58:10.755Z,8.30
2018-07-20T08:00:39.201Z,7.53
2018-07-20T08:03:07.473Z,10.20
2018-07-20T08:05:36.080Z,12.00
2018-07-20T08:08:04.517Z,7.83
2018-07-20T08:10:32.937Z,6.77
2018-07-20T08:13:01.382Z,8.07
2018-07-20T08:15:29.580Z,12.47
2018-07-20T08:17:58.252Z,8.83
2018-07-20T08:20:26.436Z,8.00
2018-07-20T08:22:54.782Z,7.67
2018-07-20T08:25:23.179Z,8.40
2018-07-20T08:27:51.579Z,8.00
2018-07-20T08:30:19.730Z,6.10
2018-07-20T08:32:47.928Z,6.13
2018-07-20T08:35:16.124Z,7.30
2018-07-20T08:37:44.275Z,6.70
2018-07-20T08:40:12.467Z,9.10
2018-07-20T08:42:40.677Z,6.97
2018-07-20T08:45:09.228Z,8.93
2018-07-20T08:47:37.485Z,6.60
2018-07-20T08:50:06.387Z,7.80
2018-07-20T08:52:35.007Z,5.30
2018-07-20T08:55:03.165Z,5.33
2018-07-20T08:57:31.460Z,5.67
2018-07-20T08:59:59.684Z,5.90
2018-07-20T09:02:28.165Z,8.30
2018-07-20T09:04:56.380Z,6.33
2018-07-20T09:07:24.733Z,5.57
2018-07-20T09:09:52.965Z,5.53
2018-07-20T09:12:21.210Z,9.37
2018-07-20T09:14:49.558Z,5.60
2018-07-20T09:17:17.722Z,5.50
2018-07-20T09:19:46.137Z,6.03
2018-07-20T09:22:14.422Z,6.23
2018-07-20T09:24:42.694Z,7.30
2018-07-20T09:27:10.935Z,5.60
2018-07-20T09:29:39.463Z,5.70
2018-07-20T09:32:07.933Z,5.80
2018-07-20T09:34:36.092Z,8.47
2018-07-20T09:37:04.296Z,8.37
2018-07-20T09:39:32.456Z,6.10
2018-07-20T09:42:00.775Z,9.13
2018-07-20T09:44:28.979Z,5.70
2018-07-20T09:46:57.363Z,5.27
2018-07-20T09:49:25.680Z,5.40
2018-07-20T09:51:53.864Z,6.00
2018-07-20T09:54:22.017Z,8.03
2018-07-20T09:56:50.191Z,8.67
2018-07-20T09:59:18.365Z,4.67
2018-07-20T10:01:46.587Z,5.40
2018-07-20T10:04:14.784Z,6.30
2018-07-20T10:06:42.998Z,6.30
2018-07-20T10:09:12.383Z,5.10
2018-07-20T10:11:40.977Z,9.43
2018-07-20T10:14:09.128Z,5.93
2018-07-20T10:16:37.620Z,8.37
2018-07-20T10:19:06.296Z,9.20
2018-07-20T10:21:34.608Z,6.27
2018-07-20T10:24:02.800Z,6.10
2018-07-20T10:26:31.039Z,7.63
2018-07-20T10:29:00.169Z,6.03
2018-07-20T10:31:28.538Z,6.07
2018-07-20T10:33:56.923Z,7.10
2018-07-20T10:36:25.229Z,5.67
2018-07-20T10:38:53.376Z,7.83
2018-07-20T10:41:21.547Z,6.40
2018-07-20T10:43:49.996Z,5.67
2018-07-20T10:46:18.296Z,6.60
2018-07-20T10:48:46.668Z,7.93
2018-07-20T10:51:15.217Z,7.50
2018-07-20T10:53:43.745Z,5.70
2018-07-20T10:56:12.252Z,5.53
2018-07-20T10:58:40.693Z,5.80
2018-07-20T11:01:08.881Z,5.27
2018-07-20T11:03:37.352Z,4.77
2018-07-20T11:06:05.871Z,6.07
2018-07-20T11:08:34.332Z,7.80
2018-07-20T11:11:02.536Z,5.07
2018-07-20T11:13:31.091Z,6.10
2018-07-20T11:15:59.384Z,5.10
2018-07-20T11:18:27.659Z,4.80
2018-07-20T11:20:55.821Z,6.73
2018-07-20T11:23:24.017Z,5.90
2018-07-20T11:25:52.572Z,5.97
2018-07-20T11:28:20.791Z,5.70
2018-07-20T11:30:49.063Z,5.47
2018-07-20T11:33:17.217Z,5.80
2018-07-20T11:35:45.574Z,5.90
2018-07-20T11:38:13.972Z,9.33
2018-07-20T11:40:42.151Z,6.93
2018-07-20T11:43:10.327Z,6.80
2018-07-20T11:45:38.773Z,9.23
2018-07-20T11:48:07.107Z,6.87
2018-07-20T11:50:35.298Z,6.40
2018-07-20T11:53:03.676Z,8.30
2018-07-20T11:55:31.815Z,6.23
2018-07-20T11:58:00.116Z,5.87
2018-07-20T12:00:28.602Z,9.10
2018-07-20T12:02:56.879Z,5.60
2018-07-20T12:05:25.215Z,8.00
2018-07-20T12:07:53.425Z,7.70
2018-07-20T12:10:22.215Z,6.60
2018-07-20T12:12:50.360Z,10.20
2018-07-20T12:15:18.558Z,6.73
2018-07-20T12:17:46.700Z,5.40
2018-07-20T12:20:14.897Z,8.27
2018-07-20T12:22:43.164Z,6.40
2018-07-20T12:25:11.368Z,6.67
2018-07-20T12:27:39.731Z,6.33
2018-07-20T12:30:08.148Z,7.00
2018-07-20T12:32:36.409Z,6.53
2018-07-20T12:35:04.663Z,6.60
2018-07-20T12:37:32.838Z,7.47
2018-07-20T12:40:01.111Z,6.80
2018-07-20T12:42:29.296Z,7.20
2018-07-20T12:44:57.469Z,6.93
2018-07-20T12:47:25.885Z,7.93
2018-07-20T12:49:54.120Z,9.30
2018-07-20T12:52:22.667Z,7.03
2018-07-20T12:54:50.827Z,7.87
2018-07-20T12:57:19.070Z,6.33
2018-07-20T12:59:47.252Z,6.87
2018-07-20T13:02:15.521Z,7.33
2018-07-20T13:04:44.028Z,7.17
2018-07-20T13:07:12.265Z,7.87
2018-07-20T13:09:40.847Z,6.97
2018-07-20T13:12:09.192Z,6.60
2018-07-20T13:14:37.639Z,8.07
2018-07-20T13:17:05.975Z,6.60
2018-07-20T13:19:34.386Z,7.70
2018-07-20T13:22:02.578Z,6.30
2018-07-20T13:24:31.052Z,6.60
2018-07-20T13:26:59.616Z,6.17
2018-07-20T13:29:27.880Z,6.33
2018-07-20T13:31:56.578Z,6.23
2018-07-20T13:34:24.768Z,6.53
2018-07-20T13:36:52.940Z,6.27
2018-07-20T13:39:21.151Z,5.53
2018-07-20T13:41:49.455Z,6.17
2018-07-20T13:44:17.620Z,6.63
2018-07-20T13:46:45.924Z,6.53
2018-07-20T13:49:14.086Z,7.30
2018-07-20T13:51:42.371Z,6.57
2018-07-20T13:54:10.558Z,6.43
2018-07-20T13:56:38.851Z,6.30
2018-07-20T13:59:07.012Z,5.50
2018-07-20T14:01:35.240Z,5.57
2018-07-20T14:04:03.531Z,5.90
2018-07-20T14:06:31.877Z,8.50
2018-07-20T14:09:00.125Z,8.20
2018-07-20T14:11:28.433Z,8.20
2018-07-20T14:13:56.722Z,6.63
2018-07-20T14:16:25.264Z,10.60
2018-07-20T14:18:53.474Z,7.07
2018-07-20T14:21:21.648Z,6.00
2018-07-20T14:23:49.807Z,5.70
2018-07-20T14:26:18.365Z,5.37
2018-07-20T14:28:46.988Z,5.00
2018-07-20T14:31:15.556Z,6.23
2018-07-20T14:33:43.849Z,5.00
2018-07-20T14:36:12.231Z,5.50
2018-07-20T14:38:40.791Z,6.13
2018-07-20T14:41:09.480Z,6.37
2018-07-20T14:43:38.007Z,5.57
2018-07-20T14:46:06.188Z,5.70
2018-07-20T14:48:34.362Z,5.67
2018-07-20T14:51:02.650Z,7.10
2018-07-20T14:53:30.999Z,8.40
2018-07-20T14:55:59.256Z,5.57
2018-07-20T14:58:27.652Z,6.00
2018-07-20T15:00:55.831Z,5.63
2018-07-20T15:03:24.197Z,6.47
2018-07-20T15:05:52.355Z,5.50
2018-07-20T15:08:20.819Z,7.17
2018-07-20T15:10:49.233Z,5.80
2018-07-20T15:13:18.132Z,5.43
2018-07-20T15:15:46.384Z,12.30
2018-07-20T15:18:14.716Z,5.40
2018-07-20T15:20:42.949Z,5.07
2018-07-20T15:23:12.035Z,6.00
2018-07-20T15:25:40.231Z,9.67
2018-07-20T15:28:08.508Z,21.80
2018-07-20T15:30:36.879Z,7.83
2018-07-20T15:33:05.413Z,7.20
2018-07-20T15:35:33.862Z,8.40
2018-07-20T15:38:02.232Z,6.90
2018-07-20T15:40:30.604Z,7.00
2018-07-20T15:42:58.909Z,5.93
2018-07-20T15:45:27.079Z,8.20
2018-07-20T15:47:55.227Z,6.60
2018-07-20T15:50:23.427Z,8.63
2018-07-20T15:53:36.253Z,9.57
2018-07-20T15:55:19.849Z,10.10
2018-07-20T15:57:48.043Z,10.53
2018-07-20T16:00:16.246Z,10.57
2018-07-20T16:02:44.587Z,12.17
2018-07-20T16:05:12.835Z,11.13
2018-07-20T16:07:41.049Z,13.27
2018-07-20T16:10:09.331Z,13.10
2018-07-20T16:12:37.499Z,12.20
2018-07-20T16:15:06.225Z,11.93
2018-07-20T16:17:34.470Z,11.30
2018-07-20T16:20:02.756Z,11.53
2018-07-20T16:22:31.396Z,12.87
2018-07-20T16:24:59.648Z,12.23
2018-07-20T16:27:27.891Z,11.57
2018-07-20T16:29:56.204Z,11.30
2018-07-20T16:32:24.462Z,10.83
2018-07-20T16:34:52.883Z,10.47
2018-07-20T16:37:21.116Z,9.80
2018-07-20T16:39:49.251Z,7.70
2018-07-20T16:42:17.449Z,7.67
2018-07-20T16:44:45.619Z,7.97
2018-07-20T16:47:13.810Z,6.17
2018-07-20T16:49:42.360Z,5.70
2018-07-20T16:52:10.647Z,5.90
2018-07-20T16:54:38.820Z,7.77
2018-07-20T16:57:08.253Z,4.80
2018-07-20T16:59:36.508Z,3.90
2018-07-20T17:02:04.900Z,3.90
2018-07-20T17:04:33.123Z,4.60
2018-07-20T17:07:01.798Z,4.00
2018-07-20T17:09:30.051Z,4.00
2018-07-20T17:11:58.201Z,5.00
2018-07-20T17:14:26.397Z,4.53
2018-07-20T17:16:54.559Z,4.17
2018-07-20T17:19:23.161Z,6.23
2018-07-20T17:21:51.608Z,5.10
2018-07-20T17:24:19.852Z,4.97
2018-07-20T17:26:48.125Z,5.07
2018-07-20T17:29:16.275Z,5.43
2018-07-20T17:31:44.439Z,5.77
2018-07-20T17:34:12.723Z,5.37
2018-07-20T17:36:41.403Z,5.63
2018-07-20T17:39:11.242Z,4.73
2018-07-20T17:41:39.439Z,4.80
2018-07-20T17:44:08.080Z,5.80
2018-07-20T17:46:36.256Z,5.73
2018-07-20T17:49:04.540Z,5.30
2018-07-20T17:51:32.742Z,5.10
2018-07-20T17:54:00.864Z,5.13
2018-07-20T17:56:29.061Z,5.23
2018-07-20T17:58:57.436Z,5.10
2018-07-20T18:01:25.807Z,6.00
2018-07-20T18:03:54.009Z,4.70
2018-07-20T18:06:22.284Z,4.90
2018-07-20T18:08:50.839Z,5.23
2018-07-20T18:11:19.067Z,4.37
2018-07-20T18:13:47.301Z,4.73
2018-07-20T18:16:15.587Z,4.33
2018-07-20T18:18:44.203Z,4.87
2018-07-20T18:21:12.360Z,4.53
2018-07-20T18:23:40.527Z,4.77
2018-07-20T18:26:09.037Z,4.43
2018-07-20T18:28:37.475Z,5.00
2018-07-20T18:31:06.178Z,5.20
2018-07-20T18:33:34.761Z,4.70
2018-07-20T18:36:03.128Z,5.23
2018-07-20T18:38:31.784Z,6.97
2018-07-20T18:41:00.364Z,7.67
2018-07-20T18:43:28.692Z,7.27
2018-07-20T18:45:57.015Z,6.63
2018-07-20T18:48:25.287Z,5.43
2018-07-20T18:50:53.739Z,4.60
2018-07-20T18:53:21.992Z,5.80
2018-07-20T18:55:50.172Z,6.03
2018-07-20T18:58:18.502Z,5.57
2018-07-20T19:00:46.843Z,6.17
2018-07-20T19:03:15.420Z,5.57
2018-07-20T19:05:43.741Z,6.73
2018-07-20T19:08:11.972Z,6.60
2018-07-20T19:10:40.148Z,7.00
2018-07-20T19:13:08.660Z,8.00
2018-07-20T19:15:36.907Z,7.40
2018-07-20T19:18:05.441Z,6.83
2018-07-20T19:20:33.902Z,8.90
2018-07-20T19:23:02.118Z,9.60
2018-07-20T19:25:30.692Z,8.33
2018-07-20T19:27:58.924Z,7.77
2018-07-20T19:30:27.084Z,6.40
2018-07-20T19:32:55.352Z,6.80
2018-07-20T19:35:23.528Z,6.17
2018-07-20T19:37:52.016Z,5.40
2018-07-20T19:40:20.380Z,6.87
2018-07-20T19:42:48.827Z,6.17
2018-07-20T19:45:17.077Z,7.20
2018-07-20T19:47:45.443Z,7.53
2018-07-20T19:50:13.848Z,6.93
2018-07-20T19:52:42.112Z,7.17
2018-07-20T19:55:10.667Z,7.23
2018-07-20T19:57:38.856Z,7.20
2018-07-20T20:00:07.796Z,9.93
2018-07-20T20:02:36.043Z,10.00
2018-07-20T20:05:04.829Z,9.40
2018-07-20T20:07:33.007Z,7.30
2018-07-20T20:10:01.695Z,9.10
2018-07-20T20:12:29.912Z,7.77
2018-07-20T20:14:58.162Z,8.30
2018-07-20T20:17:26.555Z,8.20
2018-07-20T20:19:54.908Z,8.37
2018-07-20T20:22:23.440Z,8.43
2018-07-20T20:24:51.592Z,7.37
2018-07-20T20:27:19.822Z,7.47
2018-07-20T20:29:47.993Z,8.87
2018-07-20T20:32:16.277Z,7.47
2018-07-20T20:34:44.451Z,8.27
2018-07-20T20:37:12.775Z,8.30
2018-07-20T20:39:41.033Z,8.27
2018-07-20T20:42:09.202Z,7.13
2018-07-20T20:44:37.356Z,7.47
2018-07-20T20:47:05.537Z,8.70
2018-07-20T20:49:33.698Z,8.60
2018-07-20T20:52:01.901Z,7.87
2018-07-20T20:54:30.179Z,8.83
2018-07-20T20:56:58.843Z,8.90
2018-07-20T20:59:27.093Z,8.80
2018-07-20T21:01:55.320Z,8.87
2018-07-20T21:04:23.650Z,7.43
2018-07-20T21:06:52.070Z,8.10
2018-07-20T21:09:20.371Z,7.73
2018-07-20T21:11:48.759Z,8.07
2018-07-20T21:14:17.460Z,8.70
2018-07-20T21:16:45.591Z,8.23
2018-07-20T21:19:13.771Z,9.10
2018-07-20T21:21:42.019Z,9.80
2018-07-20T21:24:10.215Z,8.80
2018-07-20T21:26:38.607Z,8.50
2018-07-20T21:29:07.056Z,9.10
2018-07-20T21:31:35.369Z,8.00
2018-07-20T21:34:03.681Z,9.67
2018-07-20T21:36:31.936Z,9.60
2018-07-20T21:39:00.208Z,9.43
2018-07-20T21:41:28.626Z,10.37
2018-07-20T21:43:56.847Z,10.17
2018-07-20T21:46:25.032Z,9.97
2018-07-20T21:48:53.393Z,11.00
2018-07-20T21:51:21.612Z,10.13
2018-07-20T21:53:50.076Z,9.27
2018-07-20T21:56:18.513Z,10.50
2018-07-20T21:58:46.710Z,9.83
2018-07-20T22:01:14.871Z,10.37
2018-07-20T22:03:43.213Z,10.50
2018-07-20T22:06:11.608Z,9.70
2018-07-20T22:08:39.743Z,9.27
2018-07-20T22:11:07.947Z,11.43
2018-07-20T22:13:36.276Z,10.70
2018-07-20T22:16:04.758Z,11.30
2018-07-20T22:18:32.910Z,10.73
2018-07-20T22:21:02.243Z,10.90
2018-07-20T22:23:30.534Z,10.47
2018-07-20T22:25:59.016Z,11.10
2018-07-20T22:28:27.551Z,10.00
2018-07-20T22:30:55.816Z,11.10
2018-07-20T22:33:24.111Z,10.97
2018-07-20T22:35:52.296Z,10.97
2018-07-20T22:38:20.680Z,10.63
2018-07-20T22:40:48.850Z,11.97
2018-07-20T22:43:17.047Z,10.97
2018-07-20T22:45:45.338Z,12.67
2018-07-20T22:48:13.556Z,10.30
2018-07-20T22:50:41.817Z,11.43
2018-07-20T22:53:10.369Z,10.53
2018-07-20T22:55:38.564Z,11.70
2018-07-20T22:58:06.833Z,12.73
2018-07-20T23:00:34.996Z,12.53
2018-07-20T23:03:03.188Z,12.70
2018-07-20T23:05:31.535Z,14.03
2018-07-20T23:07:59.764Z,13.40
2018-07-20T23:10:27.895Z,12.70
2018-07-20T23:12:56.283Z,12.73
2018-07-20T23:15:24.776Z,12.93
2018-07-20T23:17:53.119Z,13.80
2018-07-20T23:20:21.403Z,13.10
2018-07-20T23:22:49.686Z,14.40
2018-07-20T23:25:17.951Z,12.77
2018-07-20T23:27:46.144Z,13.17
2018-07-20T23:30:14.304Z,12.20
2018-07-20T23:32:42.484Z,13.57
2018-07-20T23:35:10.680Z,13.00
2018-07-20T23:37:38.972Z,12.27
2018-07-20T23:40:07.531Z,14.37
2018-07-20T23:42:35.679Z,12.80
2018-07-20T23:45:03.879Z,12.87
2018-07-20T23:47:32.050Z,12.90
2018-07-20T23:50:00.589Z,11.67
2018-07-20T23:52:29.139Z,13.50
2018-07-20T23:54:57.396Z,11.60
2018-07-20T23:57:25.590Z,12.00
2018-07-20T23:59:53.802Z,13.13
